Time;durP1;ratioP1;P1;durP2;ratioP2;P2;SDS_P1;SDS_P2;PMS_P1;PMS_P2;Temp;Humidity;BMP_temperature;BMP_pressure;BME280_temperature;BME280_humidity;BME280_pressure;Samples;Min_cycle;Max_cycle;Signal;HPM_P1;HPM_P2
2023/12/16 00:00:21;;;;;;;11.10;10.80;;;7.70;99.90;;;;;;5090566;28;20466;-72
2023/12/16 00:02:48;;;;;;;11.33;11.03;;;7.80;99.90;;;;;;5075375;28;20461;-71
2023/12/16 00:05:15;;;;;;;11.27;10.97;;;7.70;99.90;;;;;;5086517;28;20846;-71
2023/12/16 00:07:44;;;;;;;10.73;10.53;;;7.80;99.90;;;;;;5088350;28;20468;-71
2023/12/16 00:10:11;;;;;;;11.40;11.10;;;7.80;99.90;;;;;;5085562;28;20532;-72
2023/12/16 00:12:38;;;;;;;11.20;10.90;;;7.70;99.90;;;;;;5077091;28;20463;-70
2023/12/16 00:15:09;;;;;;;11.30;11.00;;;7.70;99.90;;;;;;5087510;28;20466;-71
2023/12/16 00:17:36;;;;;;;10.90;10.60;;;7.70;99.90;;;;;;5087860;28;20453;-70
2023/12/16 00:20:03;;;;;;;11.10;10.80;;;7.80;99.90;;;;;;5086551;28;20471;-71
2023/12/16 00:22:30;;;;;;;11.23;10.93;;;7.70;99.90;;;;;;5081302;28;20520;-69
2023/12/16 00:25:00;;;;;;;10.63;10.43;;;7.70;99.90;;;;;;5080937;28;20488;-71
2023/12/16 00:27:29;;;;;;;10.47;10.27;;;7.80;99.90;;;;;;5081118;28;20454;-71
2023/12/16 00:29:56;;;;;;;10.40;10.20;;;7.80;99.90;;;;;;5091058;28;20485;-72
2023/12/16 00:32:23;;;;;;;10.93;10.63;;;7.70;99.90;;;;;;5090940;28;20492;-71
2023/12/16 00:34:50;;;;;;;11.10;10.80;;;7.70;99.90;;;;;;5081130;28;21006;-71
2023/12/16 00:37:17;;;;;;;10.90;10.60;;;7.70;99.90;;;;;;5077932;28;20554;-72
2023/12/16 00:39:43;;;;;;;10.53;10.33;;;7.60;99.90;;;;;;5079426;28;20473;-71
2023/12/16 00:42:12;;;;;;;10.30;10.10;;;7.60;99.90;;;;;;5085042;28;20813;-72
2023/12/16 00:44:39;;;;;;;10.60;10.40;;;7.60;99.90;;;;;;5090959;28;20770;-71
2023/12/16 00:47:06;;;;;;;10.40;10.20;;;7.60;99.90;;;;;;5099950;28;20455;-71
2023/12/16 00:49:34;;;;;;;10.70;10.47;;;7.60;99.90;;;;;;5085607;28;20617;-71
2023/12/16 00:52:01;;;;;;;10.40;10.20;;;7.60;99.90;;;;;;5074823;28;20566;-71
2023/12/16 00:54:28;;;;;;;10.57;10.37;;;7.50;99.90;;;;;;5086631;28;20493;-70
2023/12/16 00:56:55;;;;;;;11.47;11.17;;;7.40;99.90;;;;;;5090926;28;20454;-72
2023/12/16 00:59:26;;;;;;;11.20;10.90;;;7.40;99.90;;;;;;5079997;28;20887;-72
2023/12/16 01:01:53;;;;;;;11.07;10.77;;;7.40;99.90;;;;;;5080257;28;20872;-69
2023/12/16 01:04:20;;;;;;;11.17;10.87;;;7.30;99.90;;;;;;5087665;28;20450;-70
2023/12/16 01:06:47;;;;;;;11.30;11.00;;;7.30;99.90;;;;;;5082667;28;21023;-72
2023/12/16 01:09:14;;;;;;;11.40;11.10;;;7.30;99.90;;;;;;5081162;28;20460;-71
2023/12/16 01:11:41;;;;;;;11.07;10.77;;;7.40;99.90;;;;;;5073327;28;20814;-71
2023/12/16 01:14:10;;;;;;;10.87;10.57;;;7.40;99.90;;;;;;5088911;28;20563;-70
2023/12/16 01:16:39;;;;;;;10.60;10.40;;;7.30;99.90;;;;;;5091675;28;20943;-70
2023/12/16 01:19:05;;;;;;;11.30;11.00;;;7.30;99.90;;;;;;5089313;28;20467;-72
2023/12/16 01:21:32;;;;;;;11.10;10.80;;;7.40;99.90;;;;;;5086788;28;20961;-71
2023/12/16 01:24:00;;;;;;;11.03;10.73;;;7.40;99.90;;;;;;5073339;28;20536;-71
2023/12/16 01:26:27;;;;;;;11.27;10.97;;;7.40;99.90;;;;;;5081762;28;20799;-72
2023/12/16 01:28:54;;;;;;;11.33;11.03;;;7.40;99.90;;;;;;5082676;28;20470;-71
2023/12/16 01:31:22;;;;;;;11.20;10.90;;;7.30;99.90;;;;;;5106845;28;20450;-70
2023/12/16 01:33:50;;;;;;;11.33;11.03;;;7.40;99.90;;;;;;5088957;28;20482;-72
2023/12/16 01:36:19;;;;;;;11.07;10.77;;;7.50;99.90;;;;;;5087055;28;21018;-72
2023/12/16 01:38:46;;;;;;;11.27;10.97;;;7.50;99.90;;;;;;5073365;28;20462;-70
2023/12/16 01:41:13;;;;;;;11.10;10.80;;;7.50;99.90;;;;;;5076923;28;20498;-71
2023/12/16 01:43:40;;;;;;;11.20;10.90;;;7.40;99.90;;;;;;5086819;28;20892;-72
2023/12/16 01:46:07;;;;;;;11.40;11.10;;;7.40;99.90;;;;;;5089917;28;20461;-72
2023/12/16 01:48:34;;;;;;;11.23;10.93;;;7.50;99.90;;;;;;5079927;28;20461;-71
2023/12/16 01:51:03;;;;;;;11.67;11.37;;;7.50;99.90;;;;;;5076730;28;20455;-69
2023/12/16 01:53:32;;;;;;;11.30;11.00;;;7.50;99.90;;;;;;5085668;28;20942;-70
2023/12/16 01:56:00;;;;;;;11.33;11.03;;;7.50;99.90;;;;;;5081080;28;20459;-72
2023/12/16 01:58:27;;;;;;;11.50;11.20;;;7.40;99.90;;;;;;5077010;28;20479;-72
2023/12/16 02:00:53;;;;;;;11.37;11.07;;;7.50;99.90;;;;;;5094156;28;20968;-72
2023/12/16 02:03:20;;;;;;;11.40;11.10;;;7.50;99.90;;;;;;5089271;28;20460;-72
2023/12/16 02:05:49;;;;;;;11.03;10.73;;;7.50;99.90;;;;;;5086706;28;20466;-71
2023/12/16 02:08:17;;;;;;;11.50;11.20;;;7.50;99.90;;;;;;5093468;28;20450;-71
2023/12/16 02:10:45;;;;;;;11.50;11.20;;;7.50;99.90;;;;;;5091009;28;20512;-72
2023/12/16 02:13:12;;;;;;;11.20;10.90;;;7.50;99.90;;;;;;5080654;28;20454;-70
2023/12/16 02:15:39;;;;;;;11.13;10.83;;;7.50;99.90;;;;;;5081801;28;20452;-71
2023/12/16 02:18:05;;;;;;;11.10;10.80;;;7.50;99.90;;;;;;5077517;28;20458;-73
2023/12/16 02:20:33;;;;;;;11.40;11.10;;;7.50;99.90;;;;;;5091688;28;20463;-71
2023/12/16 02:23:03;;;;;;;11.70;11.40;;;7.50;99.90;;;;;;5081486;28;20495;-72
2023/12/16 02:25:32;;;;;;;10.53;10.33;;;7.50;99.90;;;;;;5085057;28;20490;-72
2023/12/16 02:27:59;;;;;;;11.20;10.90;;;7.50;99.90;;;;;;5088653;28;20515;-74
2023/12/16 02:30:26;;;;;;;11.23;10.93;;;7.50;99.90;;;;;;5086612;28;20501;-72
2023/12/16 02:32:55;;;;;;;11.00;10.70;;;7.50;99.90;;;;;;5084025;28;20527;-71
2023/12/16 02:35:23;;;;;;;10.63;10.43;;;7.50;99.90;;;;;;5081650;28;21078;-72
2023/12/16 02:37:50;;;;;;;10.87;10.63;;;7.50;99.90;;;;;;5089211;28;20461;-71
2023/12/16 02:40:19;;;;;;;11.30;11.00;;;7.50;99.90;;;;;;5085201;28;20461;-71
2023/12/16 02:42:47;;;;;;;11.43;11.13;;;7.50;99.90;;;;;;5079958;28;20684;-72
2023/12/16 02:45:15;;;;;;;11.80;11.50;;;7.50;99.90;;;;;;5087786;28;20826;-72
2023/12/16 02:47:42;;;;;;;11.50;11.20;;;7.50;99.90;;;;;;5083950;28;20462;-69
2023/12/16 02:50:10;;;;;;;11.37;11.07;;;7.50;99.90;;;;;;5087110;28;20463;-69
2023/12/16 02:52:37;;;;;;;11.20;10.90;;;7.50;99.90;;;;;;5071002;28;20467;-72
2023/12/16 02:55:04;;;;;;;11.33;11.03;;;7.50;99.90;;;;;;5083997;28;20487;-72
2023/12/16 02:57:32;;;;;;;11.27;10.97;;;7.50;99.90;;;;;;5087998;28;21014;-71
2023/12/16 03:00:01;;;;;;;11.27;10.97;;;7.50;99.90;;;;;;5081292;28;20458;-72
2023/12/16 03:02:28;;;;;;;11.40;11.10;;;7.50;99.90;;;;;;5092120;28;20461;-72
2023/12/16 03:04:55;;;;;;;10.67;10.47;;;7.50;99.90;;;;;;5085105;28;20521;-71
2023/12/16 03:07:22;;;;;;;11.60;11.30;;;7.50;99.90;;;;;;5077993;28;20459;-70
2023/12/16 03:09:49;;;;;;;10.80;10.60;;;7.50;99.90;;;;;;5079224;28;20513;-71
2023/12/16 03:12:17;;;;;;;11.40;11.10;;;7.50;99.90;;;;;;5079239;28;20611;-71
2023/12/16 03:14:44;;;;;;;11.60;11.30;;;7.50;99.90;;;;;;5083049;28;21053;-71
2023/12/16 03:17:15;;;;;;;11.40;11.10;;;7.50;99.90;;;;;;5086391;28;20458;-71
2023/12/16 03:19:42;;;;;;;11.60;11.30;;;7.50;99.90;;;;;;5094231;28;20453;-71
2023/12/16 03:22:09;;;;;;;11.03;10.73;;;7.50;99.90;;;;;;5070321;28;20466;-72
2023/12/16 03:24:37;;;;;;;11.27;10.97;;;7.50;99.90;;;;;;5083290;28;20497;-71
2023/12/16 03:27:04;;;;;;;11.00;10.70;;;7.50;99.90;;;;;;5083920;28;20467;-72
2023/12/16 03:29:31;;;;;;;11.47;11.17;;;7.60;99.90;;;;;;5083758;28;20976;-72
2023/12/16 03:31:58;;;;;;;11.63;11.33;;;7.60;99.90;;;;;;5083074;28;20466;-73
2023/12/16 03:34:26;;;;;;;11.30;11.00;;;7.50;99.90;;;;;;5071626;28;20500;-71
2023/12/16 03:36:54;;;;;;;11.50;11.20;;;7.50;99.90;;;;;;5079672;28;20884;-71
2023/12/16 03:39:21;;;;;;;11.60;11.30;;;7.60;99.90;;;;;;5087573;28;20827;-71
2023/12/16 03:41:49;;;;;;;11.63;11.33;;;7.60;99.90;;;;;;5078939;28;20455;-71
2023/12/16 03:44:16;;;;;;;12.00;11.70;;;7.60;99.90;;;;;;5088309;28;20450;-72
2023/12/16 03:46:43;;;;;;;11.87;11.57;;;7.60;99.90;;;;;;5075325;28;20739;-71
2023/12/16 03:49:10;;;;;;;11.60;11.30;;;7.60;99.90;;;;;;5071846;28;20568;-72
2023/12/16 03:51:40;;;;;;;11.47;11.17;;;7.60;99.90;;;;;;5080403;28;20521;-71
2023/12/16 03:54:09;;;;;;;11.17;10.87;;;7.60;99.90;;;;;;5082020;28;20543;-70
2023/12/16 03:56:36;;;;;;;11.50;11.20;;;7.60;99.90;;;;;;5098511;28;20833;-73
2023/12/16 03:59:05;;;;;;;11.47;11.17;;;7.60;99.90;;;;;;5089875;28;20458;-72
2023/12/16 04:01:32;;;;;;;11.60;11.30;;;7.50;99.90;;;;;;5087298;28;20745;-71
2023/12/16 04:03:59;;;;;;;11.47;11.17;;;7.50;99.90;;;;;;5078834;28;20463;-71
2023/12/16 04:06:26;;;;;;;11.70;11.40;;;7.50;99.90;;;;;;5088558;28;20462;-72
2023/12/16 04:08:54;;;;;;;11.77;11.47;;;7.50;99.90;;;;;;5091416;28;20466;-72
2023/12/16 04:11:21;;;;;;;11.43;11.13;;;7.50;99.90;;;;;;5100474;28;20467;-71
2023/12/16 04:13:49;;;;;;;11.40;11.10;;;7.50;99.90;;;;;;5087731;28;20467;-72
2023/12/16 04:16:17;;;;;;;11.40;11.10;;;7.50;99.90;;;;;;5074349;28;20508;-72
2023/12/16 04:18:44;;;;;;;11.47;11.17;;;7.50;99.90;;;;;;5088730;28;20461;-72
2023/12/16 04:21:11;;;;;;;11.37;11.07;;;7.50;99.90;;;;;;5085354;28;20460;-71
2023/12/16 04:23:38;;;;;;;11.30;11.00;;;7.50;99.90;;;;;;5079292;28;20477;-72
2023/12/16 04:26:06;;;;;;;11.27;10.97;;;7.50;99.90;;;;;;5090231;28;20467;-71
2023/12/16 04:28:34;;;;;;;11.50;11.20;;;7.50;99.90;;;;;;5075439;28;20463;-72
2023/12/16 04:31:01;;;;;;;11.10;10.80;;;7.40;99.90;;;;;;5095555;28;20486;-71
2023/12/16 04:33:28;;;;;;;11.13;10.83;;;7.40;99.90;;;;;;5089960;28;20454;-71
2023/12/16 04:35:56;;;;;;;11.60;11.30;;;7.30;99.90;;;;;;5091146;28;20533;-71
2023/12/16 04:38:23;;;;;;;11.50;11.20;;;7.30;99.90;;;;;;5070270;28;20458;-72
2023/12/16 04:40:50;;;;;;;11.53;11.23;;;7.30;99.90;;;;;;5075893;28;20459;-70
2023/12/16 04:43:20;;;;;;;11.10;10.80;;;7.40;99.90;;;;;;5076690;28;20884;-73
2023/12/16 04:45:47;;;;;;;11.63;11.33;;;7.40;99.90;;;;;;5084893;28;20451;-69
2023/12/16 04:48:14;;;;;;;11.80;11.50;;;7.40;99.90;;;;;;5086513;28;20995;-70
2023/12/16 04:50:41;;;;;;;12.07;11.77;;;7.40;99.90;;;;;;5088420;28;20455;-72
2023/12/16 04:53:08;;;;;;;11.93;11.63;;;7.50;99.90;;;;;;5090917;28;20458;-71
2023/12/16 04:55:35;;;;;;;12.40;12.10;;;7.50;99.90;;;;;;5081089;28;20494;-70
2023/12/16 04:58:01;;;;;;;12.20;11.90;;;7.50;99.90;;;;;;5083695;28;20465;-72
2023/12/16 05:00:29;;;;;;;12.30;12.00;;;7.50;99.90;;;;;;5089040;28;20446;-71
2023/12/16 05:02:56;;;;;;;11.70;11.40;;;7.50;99.90;;;;;;5074842;28;20486;-71
2023/12/16 05:05:24;;;;;;;10.77;10.57;;;7.50;99.90;;;;;;5090066;28;20765;-71
2023/12/16 05:07:51;;;;;;;11.03;10.73;;;7.50;99.90;;;;;;5087293;28;21016;-71
2023/12/16 05:10:17;;;;;;;11.43;11.13;;;7.50;99.90;;;;;;5084209;28;20461;-71
2023/12/16 05:12:44;;;;;;;11.50;11.20;;;7.50;99.90;;;;;;5076476;28;20475;-71
2023/12/16 05:15:11;;;;;;;11.00;10.70;;;7.50;99.90;;;;;;5077521;28;20478;-70
2023/12/16 05:17:39;;;;;;;12.13;11.83;;;7.50;99.90;;;;;;5080058;28;20450;-70
2023/12/16 05:20:07;;;;;;;11.60;11.30;;;7.50;99.90;;;;;;5077987;28;20463;-72
2023/12/16 05:22:34;;;;;;;11.70;11.40;;;7.50;99.90;;;;;;5084536;28;20462;-72
2023/12/16 05:25:02;;;;;;;11.53;11.23;;;7.50;99.90;;;;;;5078740;28;20570;-71
2023/12/16 05:27:29;;;;;;;11.40;11.10;;;7.50;99.90;;;;;;5081210;28;21019;-71
2023/12/16 05:29:57;;;;;;;11.63;11.33;;;7.50;99.90;;;;;;5083181;28;21028;-71
2023/12/16 05:32:24;;;;;;;12.00;11.70;;;7.50;99.90;;;;;;5088024;28;20455;-71
2023/12/16 05:34:52;;;;;;;11.63;11.33;;;7.50;99.90;;;;;;5084224;28;20525;-71
2023/12/16 05:37:19;;;;;;;11.57;11.27;;;7.50;99.90;;;;;;5077170;28;20466;-73
2023/12/16 05:39:46;;;;;;;11.80;11.50;;;7.50;99.90;;;;;;5085367;28;21085;-70
2023/12/16 05:42:13;;;;;;;11.90;11.60;;;7.60;99.90;;;;;;5081176;28;20471;-72
2023/12/16 05:44:40;;;;;;;12.30;12.00;;;7.60;99.90;;;;;;5087814;28;20848;-71
2023/12/16 05:47:08;;;;;;;12.03;11.73;;;7.60;99.90;;;;;;5084627;28;20470;-72
2023/12/16 05:49:34;;;;;;;12.07;11.77;;;7.60;99.90;;;;;;5082642;28;20458;-72
2023/12/16 05:52:03;;;;;;;12.43;12.13;;;7.60;99.90;;;;;;5079510;28;20508;-70
2023/12/16 05:54:30;;;;;;;11.97;11.67;;;7.60;99.90;;;;;;5086213;28;20527;-72
2023/12/16 05:56:57;;;;;;;12.20;11.90;;;7.60;99.90;;;;;;5079572;28;20946;-71
2023/12/16 05:59:24;;;;;;;11.90;11.60;;;7.60;99.90;;;;;;5082719;28;20864;-71
2023/12/16 06:01:50;;;;;;;12.17;11.87;;;7.60;99.90;;;;;;5086128;28;20830;-72
2023/12/16 06:04:17;;;;;;;12.50;12.20;;;7.60;99.90;;;;;;5085356;28;20457;-73
2023/12/16 06:06:46;;;;;;;12.17;11.87;;;7.70;99.90;;;;;;5095183;28;20531;-70
2023/12/16 06:09:14;;;;;;;12.03;11.73;;;7.60;99.90;;;;;;5080735;28;20455;-70
2023/12/16 06:11:42;;;;;;;11.97;11.67;;;7.60;99.90;;;;;;5082020;28;20467;-73
2023/12/16 06:14:09;;;;;;;11.97;11.67;;;7.60;99.90;;;;;;5083050;28;20454;-71
2023/12/16 06:16:36;;;;;;;12.07;11.77;;;7.60;99.90;;;;;;5080720;28;20487;-70
2023/12/16 06:19:03;;;;;;;11.97;11.67;;;7.60;99.90;;;;;;5082891;28;20463;-70
2023/12/16 06:21:30;;;;;;;12.10;11.80;;;7.60;99.90;;;;;;5078638;28;20549;-71
2023/12/16 06:23:58;;;;;;;11.93;11.63;;;7.60;99.90;;;;;;5084954;28;20505;-72
2023/12/16 06:26:27;;;;;;;12.00;11.70;;;7.60;99.90;;;;;;5089031;28;20455;-70
2023/12/16 06:28:54;;;;;;;11.47;11.17;;;7.60;99.90;;;;;;5078458;28;20475;-71
2023/12/16 06:31:22;;;;;;;11.70;11.40;;;7.60;99.90;;;;;;5087135;28;20495;-71
2023/12/16 06:33:49;;;;;;;11.90;11.60;;;7.70;99.90;;;;;;5087479;28;20446;-71
2023/12/16 06:36:17;;;;;;;11.57;11.27;;;7.70;99.90;;;;;;5072318;28;20575;-72
2023/12/16 06:38:45;;;;;;;11.90;11.60;;;7.70;99.90;;;;;;5079640;28;20458;-70
2023/12/16 06:41:12;;;;;;;12.03;11.73;;;7.60;99.90;;;;;;5081182;28;20537;-71
2023/12/16 06:43:40;;;;;;;11.90;11.60;;;7.60;99.90;;;;;;5087952;28;20462;-72
2023/12/16 06:46:07;;;;;;;11.60;11.30;;;7.60;99.90;;;;;;5078712;28;20880;-71
2023/12/16 06:48:35;;;;;;;11.87;11.57;;;7.60;99.90;;;;;;5077400;28;20461;-70
2023/12/16 06:51:03;;;;;;;12.23;11.93;;;7.50;99.90;;;;;;5094267;28;20454;-71
2023/12/16 06:53:33;;;;;;;11.87;11.57;;;7.40;99.90;;;;;;5080570;28;20474;-70
2023/12/16 06:56:01;;;;;;;12.10;11.80;;;7.40;99.90;;;;;;5075886;28;20502;-71
2023/12/16 06:58:28;;;;;;;12.30;12.00;;;7.30;99.90;;;;;;5079164;28;20457;-70
2023/12/16 07:00:56;;;;;;;12.50;12.20;;;7.10;99.90;;;;;;5080272;28;20458;-71
2023/12/16 07:03:23;;;;;;;12.23;11.93;;;7.00;99.90;;;;;;5075873;28;20976;-72
2023/12/16 07:05:50;;;;;;;11.83;11.53;;;6.90;99.90;;;;;;5083746;28;20474;-72
2023/12/16 07:08:17;;;;;;;12.83;12.43;;;6.80;99.90;;;;;;5084509;28;20539;-72
2023/12/16 07:10:44;;;;;;;11.20;10.90;;;6.70;99.90;;;;;;5085013;28;20462;-72
2023/12/16 07:13:11;;;;;;;11.97;11.67;;;6.60;99.90;;;;;;5078208;28;20481;-71
2023/12/16 07:15:39;;;;;;;11.97;11.67;;;6.60;99.90;;;;;;5085537;28;20518;-70
2023/12/16 07:18:07;;;;;;;11.80;11.50;;;6.60;99.90;;;;;;5080528;28;20568;-71
2023/12/16 07:20:34;;;;;;;12.23;11.93;;;6.50;99.90;;;;;;5089840;28;20949;-71
2023/12/16 07:23:01;;;;;;;12.13;11.83;;;6.50;99.90;;;;;;5080381;28;20470;-72
2023/12/16 07:25:28;;;;;;;11.90;11.60;;;6.50;99.90;;;;;;5080307;28;20501;-71
2023/12/16 07:27:55;;;;;;;11.73;11.43;;;6.40;99.90;;;;;;5072112;28;20511;-70
2023/12/16 07:30:22;;;;;;;12.20;11.90;;;6.40;99.90;;;;;;5090060;28;20474;-70
2023/12/16 07:32:49;;;;;;;11.63;11.33;;;6.40;99.90;;;;;;5090386;28;20572;-72
2023/12/16 07:35:17;;;;;;;11.30;11.00;;;6.40;99.90;;;;;;5078164;28;21004;-71
2023/12/16 07:37:45;;;;;;;11.40;11.10;;;6.30;99.90;;;;;;5081962;28;20474;-71
2023/12/16 07:40:12;;;;;;;10.80;10.60;;;6.30;99.90;;;;;;5079914;28;20451;-70
2023/12/16 07:42:40;;;;;;;11.53;11.23;;;6.30;99.90;;;;;;5090528;28;20458;-72
2023/12/16 07:45:08;;;;;;;10.97;10.67;;;6.30;99.90;;;;;;5090315;28;20464;-70
2023/12/16 07:47:35;;;;;;;11.50;11.20;;;6.30;99.90;;;;;;5091503;28;20466;-71
2023/12/16 07:50:02;;;;;;;11.70;11.40;;;6.20;99.90;;;;;;5090330;28;20465;-71
2023/12/16 07:52:31;;;;;;;11.60;11.30;;;6.20;99.90;;;;;;5085162;28;20466;-70
2023/12/16 07:54:57;;;;;;;11.40;11.10;;;6.30;99.90;;;;;;5087789;28;20504;-71
2023/12/16 07:57:24;;;;;;;11.43;11.13;;;6.30;99.90;;;;;;5091982;28;20521;-71
2023/12/16 07:59:52;;;;;;;11.37;11.07;;;6.30;99.90;;;;;;5084256;28;20869;-71
2023/12/16 08:02:19;;;;;;;11.73;11.43;;;6.20;99.90;;;;;;5098554;28;20837;-71
2023/12/16 08:04:46;;;;;;;11.57;11.27;;;6.20;99.90;;;;;;5082380;28;20458;-70
2023/12/16 08:07:13;;;;;;;11.87;11.57;;;6.30;99.90;;;;;;5078245;28;20464;-71
2023/12/16 08:09:41;;;;;;;11.40;11.10;;;6.30;99.90;;;;;;5082637;28;20520;-71
2023/12/16 08:12:08;;;;;;;11.57;11.27;;;6.30;99.90;;;;;;5085734;28;20472;-70
2023/12/16 08:14:34;;;;;;;11.23;10.93;;;6.30;99.90;;;;;;5090989;28;20465;-71
2023/12/16 08:17:02;;;;;;;11.60;11.30;;;6.30;99.90;;;;;;5091878;28;20899;-72
2023/12/16 08:19:29;;;;;;;11.80;11.50;;;6.40;99.90;;;;;;5089907;28;20492;-72
2023/12/16 08:21:59;;;;;;;11.47;11.17;;;6.40;99.90;;;;;;5087992;28;20467;-71
2023/12/16 08:24:25;;;;;;;11.57;11.27;;;6.40;99.90;;;;;;5085955;28;20490;-72
2023/12/16 08:26:54;;;;;;;12.13;11.83;;;6.40;99.90;;;;;;5075855;28;20958;-71
2023/12/16 08:29:22;;;;;;;11.80;11.50;;;6.50;99.90;;;;;;5091025;28;20482;-72
2023/12/16 08:31:48;;;;;;;11.33;11.03;;;6.60;99.90;;;;;;5087370;28;20519;-70
2023/12/16 08:34:15;;;;;;;11.87;11.57;;;6.60;99.90;;;;;;5077633;28;20466;-70
2023/12/16 08:36:43;;;;;;;12.03;11.73;;;6.70;99.90;;;;;;5081284;28;20520;-71
2023/12/16 08:39:10;;;;;;;12.00;11.70;;;6.70;99.90;;;;;;5083214;28;20494;-70
2023/12/16 08:41:37;;;;;;;12.00;11.70;;;6.70;99.90;;;;;;5078328;28;20459;-70
2023/12/16 08:44:06;;;;;;;11.63;11.33;;;6.80;99.90;;;;;;5090886;28;20451;-71
2023/12/16 08:46:40;;;;;;;12.20;11.90;;;6.80;99.90;;;;;;5102431;28;20862;-71
2023/12/16 08:49:07;;;;;;;12.43;12.13;;;6.90;99.90;;;;;;5085369;28;20467;-70
2023/12/16 08:51:33;;;;;;;12.10;11.80;;;7.00;99.90;;;;;;5085939;28;20462;-73
2023/12/16 08:54:00;;;;;;;12.17;11.87;;;7.10;99.90;;;;;;5085114;28;20463;-71
2023/12/16 08:56:28;;;;;;;11.87;11.57;;;7.20;99.90;;;;;;5081287;28;20539;-69
2023/12/16 08:58:56;;;;;;;12.30;12.00;;;7.30;99.90;;;;;;5087493;28;20456;-69
2023/12/16 09:01:25;;;;;;;11.80;11.50;;;7.40;99.90;;;;;;5089744;28;20454;-71
2023/12/16 09:03:52;;;;;;;12.50;12.10;;;7.40;99.90;;;;;;5083218;28;20480;-71
2023/12/16 09:06:20;;;;;;;12.40;12.10;;;7.50;99.90;;;;;;5091712;28;20474;-71
2023/12/16 09:08:47;;;;;;;12.30;12.00;;;7.60;99.90;;;;;;5080834;28;20519;-72
2023/12/16 09:11:16;;;;;;;12.20;11.90;;;7.70;99.90;;;;;;5090769;28;20458;-71
2023/12/16 09:13:43;;;;;;;12.30;12.00;;;7.70;99.90;;;;;;5090479;28;20458;-70
2023/12/16 09:16:10;;;;;;;12.40;12.10;;;7.80;99.90;;;;;;5085339;28;20494;-72
2023/12/16 09:18:38;;;;;;;12.30;12.00;;;8.00;99.90;;;;;;5090644;28;20466;-72
2023/12/16 09:21:06;;;;;;;12.57;12.17;;;7.90;99.90;;;;;;5095742;28;20507;-71
2023/12/16 09:23:32;;;;;;;12.77;12.37;;;8.00;99.90;;;;;;5075783;28;20459;-71
2023/12/16 09:25:59;;;;;;;12.90;12.50;;;8.10;99.90;;;;;;5085694;28;20466;-72
2023/12/16 09:28:26;;;;;;;13.10;12.70;;;8.10;99.90;;;;;;5090642;28;20461;-70
2023/12/16 09:30:52;;;;;;;12.80;12.40;;;8.20;99.90;;;;;;5087780;28;20497;-70
2023/12/16 09:33:20;;;;;;;13.13;12.73;;;8.20;99.90;;;;;;5079117;28;20474;-70
2023/12/16 09:35:48;;;;;;;12.87;12.47;;;8.30;99.90;;;;;;5080979;28;20553;-70
2023/12/16 09:38:15;;;;;;;12.27;11.97;;;8.40;99.90;;;;;;5087984;28;20462;-70
2023/12/16 09:40:42;;;;;;;12.63;12.23;;;8.50;99.90;;;;;;5074953;28;20455;-70
2023/12/16 09:43:16;;;;;;;12.43;12.13;;;8.50;99.90;;;;;;5077385;28;20548;-70
2023/12/16 09:45:47;;;;;;;12.27;11.97;;;8.60;99.90;;;;;;5090760;28;20470;-70
2023/12/16 09:48:16;;;;;;;11.87;11.57;;;8.70;99.90;;;;;;5078488;28;20522;-70
2023/12/16 09:50:44;;;;;;;13.00;12.60;;;8.70;99.90;;;;;;5090960;28;20653;-70
2023/12/16 09:53:12;;;;;;;12.70;12.30;;;8.80;99.90;;;;;;5082818;28;20981;-69
2023/12/16 09:55:40;;;;;;;12.80;12.40;;;8.90;99.90;;;;;;5075751;28;20804;-70
2023/12/16 09:58:09;;;;;;;12.53;12.13;;;8.90;99.90;;;;;;5092891;28;20517;-69
2023/12/16 10:00:41;;;;;;;12.30;12.00;;;9.00;99.90;;;;;;5091273;28;20453;-70
2023/12/16 10:03:08;;;;;;;12.50;12.10;;;8.90;99.90;;;;;;5085870;28;20475;-70
2023/12/16 10:05:36;;;;;;;12.60;12.20;;;9.00;99.90;;;;;;5089818;28;20459;-70
2023/12/16 10:08:04;;;;;;;13.00;12.60;;;9.00;99.90;;;;;;5089093;28;20458;-70
2023/12/16 10:10:32;;;;;;;12.80;12.40;;;9.20;99.90;;;;;;5077610;28;20526;-70
2023/12/16 10:13:03;;;;;;;13.00;12.60;;;9.20;99.90;;;;;;5089211;28;20447;-70
2023/12/16 10:15:32;;;;;;;12.80;12.40;;;9.40;99.90;;;;;;5077455;28;20881;-72
2023/12/16 10:18:01;;;;;;;12.70;12.30;;;9.40;99.90;;;;;;5084026;28;20490;-71
2023/12/16 10:20:29;;;;;;;13.10;12.70;;;9.40;99.90;;;;;;5089022;28;20942;-70
2023/12/16 10:23:00;;;;;;;12.50;12.10;;;9.50;99.90;;;;;;5076167;28;20467;-72
2023/12/16 10:25:38;;;;;;;13.10;12.70;;;9.50;99.90;;;;;;5117285;27;20502;-69
2023/12/16 10:28:05;;;;;;;12.80;12.40;;;9.60;99.90;;;;;;5104443;28;20464;-71
2023/12/16 10:30:32;;;;;;;13.20;12.80;;;9.60;99.90;;;;;;5083554;28;20483;-69
2023/12/16 10:33:03;;;;;;;12.80;12.40;;;9.70;99.90;;;;;;5085754;28;20460;-70
2023/12/16 10:35:31;;;;;;;12.33;12.03;;;9.70;99.90;;;;;;5074056;28;20553;-70
2023/12/16 10:37:58;;;;;;;12.57;12.17;;;9.90;99.90;;;;;;5078763;28;20455;-71
2023/12/16 10:40:26;;;;;;;12.60;12.20;;;10.10;99.90;;;;;;5070093;28;21011;-70
2023/12/16 10:42:55;;;;;;;11.80;11.50;;;10.30;99.90;;;;;;5082934;28;20850;-70
2023/12/16 10:45:22;;;;;;;12.80;12.40;;;10.30;99.90;;;;;;5075116;28;20506;-69
2023/12/16 10:47:50;;;;;;;12.20;11.90;;;10.50;99.90;;;;;;5069132;28;20466;-70
2023/12/16 10:50:20;;;;;;;12.13;11.83;;;10.50;99.90;;;;;;5080446;28;20471;-69
2023/12/16 10:52:53;;;;;;;12.47;12.07;;;10.70;99.90;;;;;;5077471;28;20464;-70
2023/12/16 10:55:29;;;;;;;11.93;11.63;;;10.50;99.90;;;;;;5083485;28;20465;-69
2023/12/16 10:58:05;;;;;;;12.23;11.93;;;10.80;99.90;;;;;;5075309;28;20482;-69
2023/12/16 11:00:34;;;;;;;12.10;11.80;;;11.00;99.90;;;;;;5077173;28;20852;-70
2023/12/16 11:03:05;;;;;;;11.97;11.67;;;11.10;99.90;;;;;;5082223;28;20465;-69
2023/12/16 11:05:34;;;;;;;12.10;11.80;;;10.90;99.90;;;;;;5080315;28;20485;-69
2023/12/16 11:08:02;;;;;;;12.70;12.30;;;11.10;99.90;;;;;;5080430;28;20518;-71
2023/12/16 11:10:30;;;;;;;12.67;12.27;;;11.40;99.90;;;;;;5083585;28;20537;-69
2023/12/16 11:13:00;;;;;;;12.27;11.97;;;11.40;99.90;;;;;;5083642;28;20567;-68
2023/12/16 11:15:28;;;;;;;12.83;12.43;;;11.50;99.90;;;;;;5068981;28;20470;-69
2023/12/16 11:17:58;;;;;;;12.70;12.30;;;11.90;99.90;;;;;;5079466;28;20526;-69
2023/12/16 11:20:32;;;;;;;12.40;12.10;;;11.50;99.90;;;;;;5080326;28;20902;-69
2023/12/16 11:23:00;;;;;;;12.50;12.10;;;11.80;99.90;;;;;;5077962;28;20485;-69
2023/12/16 11:25:28;;;;;;;12.73;12.33;;;11.80;99.90;;;;;;5080253;28;20505;-69
2023/12/16 11:27:57;;;;;;;12.30;12.00;;;11.40;99.90;;;;;;5072239;28;20462;-71
2023/12/16 11:30:27;;;;;;;12.67;12.27;;;11.20;99.90;;;;;;5076983;28;20867;-69
2023/12/16 11:32:55;;;;;;;13.20;12.80;;;11.00;99.90;;;;;;5069456;28;20485;-70
2023/12/16 11:35:45;;;;;;;12.40;12.10;;;11.00;99.90;;;;;;5076850;28;20452;-70
2023/12/16 11:38:41;;;;;;;12.57;12.17;;;10.90;99.90;;;;;;5054553;28;20487;-70
2023/12/16 11:41:08;;;;;;;12.00;11.70;;;10.90;99.90;;;;;;5062337;28;20454;-70
2023/12/16 11:43:49;;;;;;;12.50;12.17;;;11.00;99.90;;;;;;5071096;28;20460;-70
2023/12/16 11:46:39;;;;;;;12.53;12.23;;;11.10;99.90;;;;;;5061119;28;20659;-69
2023/12/16 11:49:10;;;;;;;12.07;11.77;;;10.90;99.90;;;;;;5065459;28;20543;-69
2023/12/16 11:51:38;;;;;;;12.90;12.50;;;10.90;99.90;;;;;;5067395;28;20475;-69
2023/12/16 11:54:07;;;;;;;12.57;12.20;;;10.70;99.90;;;;;;5067067;28;20889;-70
2023/12/16 11:56:34;;;;;;;12.03;11.73;;;10.70;99.90;;;;;;5065977;28;20456;-70
2023/12/16 11:59:02;;;;;;;11.87;11.57;;;10.80;99.90;;;;;;5069340;28;20460;-71
2023/12/16 12:01:31;;;;;;;12.10;11.80;;;10.90;99.90;;;;;;5063913;28;20449;-70
2023/12/16 12:04:02;;;;;;;11.80;11.50;;;10.80;99.90;;;;;;5069242;28;20487;-71
2023/12/16 12:06:30;;;;;;;12.47;12.17;;;10.80;99.90;;;;;;5056454;28;20555;-72
2023/12/16 12:08:57;;;;;;;12.70;12.30;;;10.70;99.90;;;;;;5067243;28;20787;-70
2023/12/16 12:11:23;;;;;;;11.80;11.50;;;10.70;99.90;;;;;;5059759;28;20461;-71
2023/12/16 12:13:52;;;;;;;12.10;11.80;;;10.70;99.90;;;;;;5070083;28;20478;-71
2023/12/16 12:16:21;;;;;;;12.40;12.07;;;10.60;99.90;;;;;;5066686;28;20594;-69
2023/12/16 12:18:48;;;;;;;12.63;12.23;;;10.50;99.90;;;;;;5060928;28;20599;-71
2023/12/16 12:21:17;;;;;;;11.90;11.60;;;10.60;99.90;;;;;;5070505;28;20453;-71
2023/12/16 12:23:43;;;;;;;12.40;12.10;;;10.50;99.90;;;;;;5056655;28;20476;-70
2023/12/16 12:26:12;;;;;;;12.10;11.80;;;10.50;99.90;;;;;;5064023;28;20471;-70
2023/12/16 12:28:39;;;;;;;12.07;11.77;;;10.50;99.90;;;;;;5066542;28;20879;-69
2023/12/16 12:31:07;;;;;;;11.97;11.67;;;10.40;99.90;;;;;;5061613;28;20889;-70
2023/12/16 12:33:35;;;;;;;12.07;11.77;;;10.50;99.90;;;;;;5064833;28;20495;-69
2023/12/16 12:36:03;;;;;;;12.10;11.80;;;10.50;99.90;;;;;;5064394;28;20466;-71
2023/12/16 12:38:33;;;;;;;11.90;11.60;;;10.60;99.90;;;;;;5067740;28;20900;-72